Time;durP1;ratioP1;P1;durP2;ratioP2;P2;SDS_P1;SDS_P2;PMS_P1;PMS_P2;Temp;Humidity;BMP_temperature;BMP_pressure;BME280_temperature;BME280_humidity;BME280_pressure;Samples;Min_cycle;Max_cycle;Signal;HPM_P1;HPM_P2
2022/09/24 00:01:12;;;;;;;4.30;2.97;;;;;;;26.23;19.16;98266.53;5071259;28;20041;-78
2022/09/24 00:03:40;;;;;;;6.60;3.38;;;;;;;25.76;19.65;98257.72;5070835;28;20043;-78
2022/09/24 00:06:08;;;;;;;5.47;3.72;;;;;;;25.60;19.97;98257.72;5070975;28;20036;-78
2022/09/24 00:08:35;;;;;;;5.57;2.97;;;;;;;25.76;19.53;98252.09;5069311;28;20037;-78
2022/09/24 00:11:03;;;;;;;4.63;3.03;;;;;;;25.83;19.84;98249.09;5063045;28;20032;-78
2022/09/24 00:13:30;;;;;;;5.63;3.47;;;;;;;25.67;20.35;98251.91;5065484;28;20044;-78
2022/09/24 00:16:00;;;;;;;3.95;3.10;;;;;;;25.60;20.01;98246.47;5069343;28;20131;-78
2022/09/24 00:18:27;;;;;;;5.90;3.28;;;;;;;25.74;19.72;98255.31;5065825;28;20040;-78
2022/09/24 00:20:53;;;;;;;5.32;3.40;;;;;;;25.72;19.76;98246.53;5070985;28;20044;-78
2022/09/24 00:23:19;;;;;;;4.75;3.17;;;;;;;25.72;19.96;98251.41;5066913;28;20113;-78
2022/09/24 00:28:32;;;;;;;5.65;3.55;;;;;;;25.81;19.99;98252.31;5063312;28;20043;-78
2022/09/24 00:31:05;;;;;;;6.78;3.58;;;;;;;25.80;19.34;98247.16;5068006;28;20033;-78
2022/09/24 00:33:33;;;;;;;3.28;2.10;;;;;;;25.79;20.03;98248.41;5068991;28;20079;-78
2022/09/24 00:36:03;;;;;;;4.00;3.03;;;;;;;25.83;19.73;98249.88;5063973;28;20032;-78
2022/09/24 00:38:33;;;;;;;4.55;3.03;;;;;;;25.74;19.69;98246.88;5069865;28;20032;-78
2022/09/24 00:40:59;;;;;;;4.78;3.40;;;;;;;25.72;20.23;98246.53;5068999;28;20044;-78
2022/09/24 00:43:36;;;;;;;5.50;3.33;;;;;;;25.80;19.59;98242.31;5067606;28;20043;-78
2022/09/24 00:46:20;;;;;;;4.80;3.05;;;;;;;25.74;19.76;98235.63;5067045;28;20051;-78
2022/09/24 00:48:49;;;;;;;3.67;2.72;;;;;;;25.72;19.67;98231.72;5052252;28;20039;-78
2022/09/24 00:51:19;;;;;;;5.72;3.50;;;;;;;25.73;19.94;98236.88;5063658;28;20478;-78
2022/09/24 00:53:48;;;;;;;5.72;3.53;;;;;;;25.75;20.06;98234.41;5066484;28;20485;-78
2022/09/24 00:56:18;;;;;;;4.57;3.05;;;;;;;25.68;19.99;98231.78;5064619;28;20104;-78
2022/09/24 00:58:51;;;;;;;4.50;3.55;;;;;;;25.35;20.40;98224.56;5061643;28;20126;-78
2022/09/24 01:01:20;;;;;;;3.97;2.95;;;;;;;25.50;20.27;98231.44;5061106;28;20039;-78
2022/09/24 01:03:48;;;;;;;4.18;2.92;;;;;;;25.51;20.01;98216.16;5066539;28;20066;-78
2022/09/24 01:06:14;;;;;;;3.63;2.80;;;;;;;25.72;19.87;98221.22;5064858;28;20627;-79
2022/09/24 01:08:40;;;;;;;4.97;3.22;;;;;;;25.83;19.88;98210.50;5070716;28;20025;-78
2022/09/24 01:11:40;;;;;;;6.22;3.38;;;;;;;25.82;20.12;98217.34;5068411;28;20047;-78
2022/09/24 01:14:25;;;;;;;4.82;3.33;;;;;;;25.44;20.21;98210.72;5065555;28;20544;-78
2022/09/24 01:17:13;;;;;;;4.53;2.92;;;;;;;25.40;20.38;98209.97;5058508;28;20506;-78
2022/09/24 01:20:03;;;;;;;3.55;2.83;;;;;;;25.49;20.08;98204.56;5064304;28;20449;-78
2022/09/24 01:22:52;;;;;;;5.20;3.92;;;;;;;25.42;20.37;98208.31;5060145;28;20043;-78
2022/09/24 01:25:40;;;;;;;5.25;3.17;;;;;;;25.50;20.36;98205.34;5064465;28;20044;-78
2022/09/24 01:28:54;;;;;;;3.35;2.75;;;;;;;25.48;20.21;98207.81;5060689;28;20124;-79
2022/09/24 01:31:45;;;;;;;3.92;2.78;;;;;;;25.40;20.16;98204.34;5048322;28;20040;-78
2022/09/24 01:34:18;;;;;;;4.32;3.00;;;;;;;25.73;20.16;98199.53;5069787;28;20082;-78
2022/09/24 01:36:46;;;;;;;5.35;2.75;;;;;;;25.80;19.40;98204.94;5069267;28;20060;-78
2022/09/24 01:39:13;;;;;;;4.60;3.05;;;;;;;25.65;19.49;98201.72;5069669;28;20121;-79
2022/09/24 01:41:41;;;;;;;6.07;3.05;;;;;;;25.63;19.21;98203.41;5068188;28;20046;-78
2022/09/24 01:44:10;;;;;;;5.55;3.28;;;;;;;25.70;18.92;98201.19;5070619;28;20540;-78
2022/09/24 01:46:40;;;;;;;5.10;3.92;;;;;;;25.75;18.89;98202.69;5072039;28;20032;-78
2022/09/24 01:49:07;;;;;;;4.13;2.78;;;;;;;25.78;19.11;98202.59;5069230;28;20040;-78
2022/09/24 01:51:57;;;;;;;3.75;2.75;;;;;;;25.78;18.62;98196.16;5067125;28;20569;-78
2022/09/24 01:54:40;;;;;;;4.05;2.63;;;;;;;25.74;18.96;98203.94;5065688;28;20476;-78
2022/09/24 01:57:41;;;;;;;4.20;2.55;;;;;;;25.64;18.92;98199.38;5068429;28;20044;-78
2022/09/24 02:00:13;;;;;;;4.38;3.03;;;;;;;25.63;18.70;98197.78;5050224;28;20700;-79
2022/09/24 02:02:49;;;;;;;3.75;2.42;;;;;;;25.65;18.84;98203.78;5065172;28;20071;-78
2022/09/24 02:05:24;;;;;;;2.42;2.22;;;;;;;25.71;19.10;98204.81;5066090;28;20037;-78
2022/09/24 02:08:19;;;;;;;5.32;3.38;;;;;;;25.68;18.98;98206.47;5062558;28;20097;-78
2022/09/24 02:11:13;;;;;;;3.67;2.78;;;;;;;25.71;18.77;98199.19;5063045;28;20032;-78
2022/09/24 02:14:07;;;;;;;4.70;2.83;;;;;;;25.19;18.85;98197.25;5066278;28;20033;-78
2022/09/24 02:16:58;;;;;;;3.33;2.78;;;;;;;24.96;19.26;98208.66;5060341;28;20112;-78
2022/09/24 02:19:27;;;;;;;4.35;3.10;;;;;;;25.22;19.16;98193.56;5069670;28;20016;-77
2022/09/24 02:21:54;;;;;;;4.30;3.25;;;;;;;25.36;18.30;98198.84;5061428;28;20056;-78
2022/09/24 02:24:45;;;;;;;3.97;2.90;;;;;;;24.92;18.89;98198.72;5060280;28;20025;-78
2022/09/24 02:27:11;;;;;;;3.47;2.38;;;;;;;25.18;18.74;98195.66;5057347;28;20056;-78
2022/09/24 02:29:38;;;;;;;3.58;2.70;;;;;;;25.20;18.70;98189.63;5064142;28;20099;-78
2022/09/24 02:32:07;;;;;;;4.97;3.08;;;;;;;25.29;18.81;98192.59;5066911;28;20095;-78
2022/09/24 02:34:45;;;;;;;5.38;3.03;;;;;;;25.45;18.54;98192.63;5066704;28;20036;-77
2022/09/24 02:37:13;;;;;;;3.85;2.78;;;;;;;25.54;18.51;98187.16;5064434;28;20082;-78
2022/09/24 02:39:40;;;;;;;2.85;2.47;;;;;;;25.40;18.64;98184.69;5067235;28;20371;-78
2022/09/24 02:42:09;;;;;;;3.67;2.95;;;;;;;25.25;18.82;98189.09;5063679;28;20036;-78
2022/09/24 02:44:36;;;;;;;3.63;2.85;;;;;;;25.27;18.97;98179.00;5064729;28;20035;-78
2022/09/24 02:47:02;;;;;;;3.40;2.33;;;;;;;25.06;18.83;98173.91;5057685;28;20039;-78
2022/09/24 02:49:29;;;;;;;5.00;2.60;;;;;;;24.99;19.07;98181.72;5063502;28;20029;-78
2022/09/24 02:51:55;;;;;;;4.13;2.60;;;;;;;24.90;19.86;98170.28;5050538;28;20024;-77
2022/09/24 02:54:23;;;;;;;4.18;2.85;;;;;;;25.03;19.96;98166.34;5066209;28;20117;-78
2022/09/24 02:56:52;;;;;;;5.20;3.25;;;;;;;25.18;19.80;98173.19;5064870;28;20520;-78
2022/09/24 02:59:18;;;;;;;4.75;2.95;;;;;;;25.22;19.91;98164.69;5064918;28;20025;-78
2022/09/24 03:01:45;;;;;;;5.85;3.03;;;;;;;25.38;20.07;98162.66;5063338;28;20035;-78
2022/09/24 03:04:12;;;;;;;7.47;3.45;;;;;;;25.48;19.82;98160.81;5062609;28;20036;-78
2022/09/24 03:06:38;;;;;;;3.88;2.70;;;;;;;25.31;19.77;98162.03;5069735;28;20850;-78
2022/09/24 03:09:05;;;;;;;3.35;2.83;;;;;;;25.47;19.39;98164.06;5070808;28;20032;-78
2022/09/24 03:11:32;;;;;;;5.28;3.03;;;;;;;25.46;19.39;98163.28;5069955;28;20040;-78
2022/09/24 03:13:58;;;;;;;2.97;2.67;;;;;;;25.40;19.72;98167.81;5065899;28;20044;-78
2022/09/24 03:16:25;;;;;;;4.25;3.13;;;;;;;25.46;19.63;98160.47;5064948;28;20079;-78
2022/09/24 03:18:51;;;;;;;5.85;3.53;;;;;;;25.47;19.67;98164.06;5066503;28;20115;-78
2022/09/24 03:21:20;;;;;;;2.33;2.10;;;;;;;25.55;19.45;98163.44;5066710;28;20568;-78
2022/09/24 03:23:47;;;;;;;4.72;2.90;;;;;;;25.58;19.80;98162.53;5069854;28;20037;-78
2022/09/24 03:26:13;;;;;;;4.05;2.80;;;;;;;25.51;19.42;98159.16;5064608;28;20116;-78
2022/09/24 03:28:40;;;;;;;4.25;3.38;;;;;;;25.59;19.62;98160.53;5066322;28;20025;-78
2022/09/24 03:31:07;;;;;;;4.85;2.97;;;;;;;25.67;19.37;98153.50;5065830;28;20413;-78
2022/09/24 03:33:42;;;;;;;3.33;2.42;;;;;;;25.65;19.36;98153.91;5063176;28;20036;-78
2022/09/24 03:36:19;;;;;;;4.80;3.30;;;;;;;25.84;19.36;98146.56;5058960;28;20032;-78
2022/09/24 03:38:47;;;;;;;4.20;2.55;;;;;;;25.81;19.37;98159.50;5060366;28;20482;-78
2022/09/24 03:41:14;;;;;;;3.05;2.47;;;;;;;25.82;19.69;98152.66;5063679;28;20570;-78
2022/09/24 03:43:40;;;;;;;4.45;2.85;;;;;;;25.89;19.54;98158.06;5065614;28;20025;-78
2022/09/24 03:46:08;;;;;;;4.10;2.63;;;;;;;25.79;19.89;98156.34;5047846;28;20081;-78
2022/09/24 03:48:36;;;;;;;3.13;2.67;;;;;;;25.72;19.50;98150.91;5044121;28;20445;-78
2022/09/24 03:51:17;;;;;;;3.83;2.65;;;;;;;25.78;19.48;98157.59;5064403;28;20047;-77
2022/09/24 03:53:43;;;;;;;3.75;2.53;;;;;;;25.62;19.41;98149.19;5061428;28;20513;-78
2022/09/24 03:56:10;;;;;;;3.35;2.20;;;;;;;25.61;19.69;98156.03;5048556;28;20028;-78
2022/09/24 03:58:37;;;;;;;2.92;2.30;;;;;;;25.81;19.36;98155.91;5066492;28;20448;-78
2022/09/24 04:01:09;;;;;;;4.05;2.78;;;;;;;25.77;19.76;98155.19;5063625;28;20099;-78
2022/09/24 04:03:36;;;;;;;3.53;2.15;;;;;;;25.84;19.74;98155.81;5066460;28;20038;-78
2022/09/24 04:06:03;;;;;;;6.22;2.67;;;;;;;25.78;19.73;98157.59;5061809;28;20033;-78
2022/09/24 04:08:30;;;;;;;3.70;2.55;;;;;;;25.67;19.44;98159.13;5056585;28;20036;-78
2022/09/24 04:10:57;;;;;;;3.03;2.63;;;;;;;25.65;19.42;98153.16;5060386;28;20052;-78
2022/09/24 04:13:23;;;;;;;3.13;2.55;;;;;;;25.46;19.95;98151.25;5064321;28;20151;-78
2022/09/24 04:15:50;;;;;;;4.80;2.50;;;;;;;25.33;20.17;98151.13;5064070;28;20078;-78
2022/09/24 04:18:17;;;;;;;4.85;3.45;;;;;;;25.18;20.15;98147.88;5058661;28;20363;-78
2022/09/24 04:20:44;;;;;;;2.97;2.28;;;;;;;24.98;20.12;98147.19;5064019;28;20036;-77
2022/09/24 04:23:11;;;;;;;4.07;2.45;;;;;;;24.80;20.49;98137.63;5063802;28;20044;-78
2022/09/24 04:25:39;;;;;;;4.30;2.40;;;;;;;25.02;20.21;98145.09;5066813;28;20029;-78
2022/09/24 04:28:07;;;;;;;3.55;2.53;;;;;;;25.38;20.22;98151.41;5055178;28;20033;-78
2022/09/24 04:30:35;;;;;;;4.85;2.58;;;;;;;25.44;20.00;98151.66;5055064;28;20074;-78
2022/09/24 04:33:02;;;;;;;3.10;2.08;;;;;;;25.11;20.61;98147.31;5065111;28;20035;-78
2022/09/24 04:35:30;;;;;;;3.05;2.55;;;;;;;25.04;20.62;98141.84;5065986;28;20033;-78
2022/09/24 04:37:58;;;;;;;7.03;2.70;;;;;;;25.20;20.89;98141.84;5064373;28;20028;-78
2022/09/24 04:40:24;;;;;;;4.53;2.20;;;;;;;25.45;20.20;98144.84;5057168;28;20455;-78
2022/09/24 04:42:51;;;;;;;5.60;2.33;;;;;;;25.68;19.96;98144.59;5062112;28;20060;-78
2022/09/24 04:45:18;;;;;;;2.90;2.30;;;;;;;25.85;19.77;98145.34;5064713;28;20028;-78
2022/09/24 04:47:54;;;;;;;3.35;2.67;;;;;;;25.83;20.08;98139.38;5066547;28;21242;-77
2022/09/24 04:50:21;;;;;;;3.58;2.67;;;;;;;25.92;20.03;98145.16;5062160;28;20555;-78
2022/09/24 04:52:47;;;;;;;3.28;2.38;;;;;;;26.09;19.34;98144.63;5066417;28;20040;-78
2022/09/24 04:55:14;;;;;;;2.83;2.20;;;;;;;26.03;19.78;98154.88;5037819;28;20037;-78
2022/09/24 04:57:40;;;;;;;3.38;2.30;;;;;;;26.12;19.95;98145.78;5059695;28;20032;-78
2022/09/24 05:00:11;;;;;;;2.22;2.03;;;;;;;26.19;19.78;98147.59;5060119;28;20086;-78
2022/09/24 05:02:37;;;;;;;4.20;2.47;;;;;;;26.45;19.56;98141.59;5059329;28;20512;-78
2022/09/24 05:05:04;;;;;;;2.90;2.00;;;;;;;26.58;19.50;98133.91;5058480;28;20046;-78
2022/09/24 05:07:30;;;;;;;2.80;2.42;;;;;;;26.71;19.14;98140.38;5063100;28;20052;-78
2022/09/24 05:09:56;;;;;;;2.97;2.00;;;;;;;26.76;19.22;98139.03;5060182;28;20474;-78
2022/09/24 05:12:22;;;;;;;2.58;2.13;;;;;;;26.84;19.10;98133.97;5063376;28;20418;-77
2022/09/24 05:14:48;;;;;;;4.97;2.10;;;;;;;26.88;18.76;98131.81;5060110;28;20049;-78
2022/09/24 05:17:14;;;;;;;3.35;1.95;;;;;;;25.88;19.47;98133.22;5065015;28;20047;-78
2022/09/24 05:19:41;;;;;;;3.20;1.92;;;;;;;25.35;20.18;98131.81;5068638;28;20037;-78
2022/09/24 05:22:07;;;;;;;3.03;2.13;;;;;;;25.19;20.60;98131.81;5066040;28;20642;-78
2022/09/24 05:24:33;;;;;;;3.00;2.42;;;;;;;25.51;20.54;98131.03;5063217;28;20059;-78
2022/09/24 05:27:11;;;;;;;2.80;2.20;;;;;;;25.91;20.28;98129.50;5063793;28;20028;-78
2022/09/24 05:29:39;;;;;;;3.47;1.92;;;;;;;26.37;20.03;98126.13;5063870;28;20068;-77
2022/09/24 05:32:08;;;;;;;2.28;1.88;;;;;;;26.45;20.17;98126.72;5058697;28;20036;-78
2022/09/24 05:34:34;;;;;;;4.97;2.38;;;;;;;26.67;20.10;98127.63;5060922;28;20051;-77
2022/09/24 05:37:01;;;;;;;3.45;2.50;;;;;;;26.25;20.86;98128.94;5058498;28;20025;-78
2022/09/24 05:39:28;;;;;;;3.80;2.35;;;;;;;26.01;20.94;98129.19;5061282;28;20036;-78
2022/09/24 05:41:55;;;;;;;3.72;1.90;;;;;;;25.31;21.93;98125.50;5061158;28;20032;-78
2022/09/24 05:44:22;;;;;;;2.80;2.20;;;;;;;25.03;22.69;98132.63;5062042;28;20048;-78
2022/09/24 05:46:49;;;;;;;2.95;2.25;;;;;;;25.80;22.36;98138.25;5049815;28;20032;-79
2022/09/24 05:49:16;;;;;;;3.50;2.65;;;;;;;26.50;21.92;98132.59;5063886;28;20040;-78
2022/09/24 05:51:42;;;;;;;3.72;2.80;;;;;;;25.56;23.25;98128.47;5058688;28;20024;-78
2022/09/24 05:54:10;;;;;;;4.03;2.42;;;;;;;25.66;23.22;98135.81;5063063;28;20406;-77
2022/09/24 05:56:37;;;;;;;2.10;1.95;;;;;;;25.41;23.82;98139.25;5063812;28;20024;-78
2022/09/24 05:59:03;;;;;;;3.58;2.30;;;;;;;25.47;23.75;98142.38;5063905;28;20068;-78
2022/09/24 06:01:30;;;;;;;2.88;2.30;;;;;;;25.42;23.97;98131.63;5061122;28;20059;-78
2022/09/24 06:03:59;;;;;;;2.40;2.00;;;;;;;25.88;23.65;98138.84;5061921;28;20036;-79
2022/09/24 06:06:28;;;;;;;2.97;2.45;;;;;;;25.49;23.72;98133.47;5064060;28;20107;-79
2022/09/24 06:08:54;;;;;;;3.15;2.50;;;;;;;25.62;24.01;98137.94;5060130;28;20037;-79
2022/09/24 06:11:21;;;;;;;3.42;2.42;;;;;;;25.05;24.08;98132.97;5067081;28;20028;-78
2022/09/24 06:13:48;;;;;;;2.95;2.13;;;;;;;25.51;24.02;98143.03;5062667;28;20044;-78
2022/09/24 06:16:14;;;;;;;3.67;2.63;;;;;;;25.86;23.59;98138.47;5065027;28;20510;-79
2022/09/24 06:18:42;;;;;;;3.78;2.63;;;;;;;25.55;24.34;98151.41;5060205;28;20036;-78
2022/09/24 06:21:13;;;;;;;3.10;2.45;;;;;;;25.45;24.61;98146.84;5067513;28;20025;-79
2022/09/24 06:23:40;;;;;;;3.08;2.55;;;;;;;25.85;24.17;98143.34;5067462;28;20072;-79
2022/09/24 06:26:10;;;;;;;3.17;2.30;;;;;;;25.40;25.49;98148.94;5065838;28;20450;-79
2022/09/24 06:28:37;;;;;;;3.55;2.67;;;;;;;25.45;25.72;98150.44;5063431;28;20470;-79
2022/09/24 06:31:04;;;;;;;2.90;1.98;;;;;;;25.86;24.93;98144.88;5071891;28;20468;-79
2022/09/24 06:33:31;;;;;;;3.92;3.38;;;;;;;26.16;24.28;98145.69;5076606;28;20115;-79
2022/09/24 06:36:01;;;;;;;2.50;2.20;;;;;;;26.73;23.95;98137.88;5095813;28;20039;-79
2022/09/24 06:38:27;;;;;;;2.47;2.03;;;;;;;26.41;24.52;98140.91;5077049;28;20109;-79
2022/09/24 06:41:03;;;;;;;3.80;2.20;;;;;;;26.56;24.69;98139.22;5067252;28;20060;-79
2022/09/24 06:43:30;;;;;;;3.25;2.20;;;;;;;26.27;25.16;98151.78;5074477;28;20043;-79
2022/09/24 06:45:58;;;;;;;2.92;2.30;;;;;;;26.84;24.27;98150.88;5056192;28;20033;-79
2022/09/24 06:48:25;;;;;;;3.45;2.30;;;;;;;26.53;24.50;98139.34;5068026;28;20031;-79
2022/09/24 06:50:53;;;;;;;2.20;1.77;;;;;;;27.42;24.07;98144.50;5065783;28;20028;-79
2022/09/24 06:53:19;;;;;;;2.80;2.33;;;;;;;27.14;23.04;98147.47;5075354;28;20425;-79
2022/09/24 06:55:46;;;;;;;2.90;2.20;;;;;;;27.29;23.97;98145.72;5062094;28;20032;-79
2022/09/24 06:58:15;;;;;;;3.25;2.30;;;;;;;27.06;23.99;98146.13;5059986;28;20239;-79
2022/09/24 07:00:41;;;;;;;2.65;2.13;;;;;;;26.63;24.76;98149.47;5071172;28;20475;-79
2022/09/24 07:03:14;;;;;;;2.03;1.83;;;;;;;26.61;24.88;98147.13;5065159;28;20926;-79
2022/09/24 07:05:40;;;;;;;3.55;2.45;;;;;;;26.39;24.63;98153.84;5065224;28;20110;-79
2022/09/24 07:08:06;;;;;;;2.40;2.20;;;;;;;27.17;24.98;98149.38;5059687;28;20029;-79
2022/09/24 07:10:33;;;;;;;3.25;2.40;;;;;;;27.46;23.58;98150.03;5068300;28;20037;-79
2022/09/24 07:12:59;;;;;;;1.95;1.77;;;;;;;27.63;23.47;98147.81;5069477;28;20508;-79
2022/09/24 07:15:25;;;;;;;2.63;2.20;;;;;;;27.52;23.64;98151.00;5067870;28;20441;-79
2022/09/24 07:17:56;;;;;;;2.72;2.38;;;;;;;27.17;24.39;98157.81;5062401;28;20119;-79
2022/09/24 07:20:22;;;;;;;2.67;2.20;;;;;;;27.68;23.83;98159.31;5065667;28;20044;-79
2022/09/24 07:22:48;;;;;;;2.38;2.17;;;;;;;27.49;24.43;98163.22;5066779;28;20091;-79
2022/09/24 07:25:15;;;;;;;2.28;2.08;;;;;;;27.96;24.17;98155.47;5068955;28;20505;-79
2022/09/24 07:27:41;;;;;;;2.10;1.88;;;;;;;27.26;25.24;98166.38;5066512;28;20059;-79
2022/09/24 07:30:08;;;;;;;3.58;2.15;;;;;;;27.87;24.63;98163.84;5065679;28;20037;-79
2022/09/24 07:32:35;;;;;;;2.88;2.00;;;;;;;27.58;25.49;98163.31;5068165;28;20029;-79
2022/09/24 07:35:01;;;;;;;2.92;2.17;;;;;;;26.93;26.55;98162.25;5070605;28;20032;-79
2022/09/24 07:37:27;;;;;;;3.78;2.17;;;;;;;27.45;24.09;98158.91;5070690;28;20036;-79
2022/09/24 07:39:53;;;;;;;2.33;2.13;;;;;;;26.86;24.80;98163.28;5070319;28;20032;-79
2022/09/24 07:42:20;;;;;;;1.88;1.60;;;;;;;26.77;25.70;98159.56;5055374;28;20037;-79
2022/09/24 07:44:47;;;;;;;2.47;2.08;;;;;;;27.50;25.00;98161.16;5067383;28;20108;-79
2022/09/24 07:47:14;;;;;;;2.92;2.30;;;;;;;27.40;24.55;98163.91;5062242;28;20082;-79
2022/09/24 07:49:41;;;;;;;2.90;1.42;;;;;;;28.40;24.00;98173.19;5069485;28;20032;-79
2022/09/24 07:52:09;;;;;;;2.38;1.70;;;;;;;28.32;24.20;98173.94;5066634;28;20037;-79
2022/09/24 07:54:35;;;;;;;1.95;1.70;;;;;;;28.43;24.16;98177.13;5067575;28;20037;-80
2022/09/24 07:57:02;;;;;;;2.20;2.00;;;;;;;28.57;23.67;98174.56;5067369;28;20032;-79
2022/09/24 07:59:29;;;;;;;1.58;1.48;;;;;;;27.91;24.99;98175.78;5066141;28;20029;-79
2022/09/24 08:01:56;;;;;;;2.00;1.60;;;;;;;28.08;24.29;98167.19;5042991;28;20064;-79
2022/09/24 08:04:22;;;;;;;2.17;1.98;;;;;;;29.42;24.34;98174.00;5067489;28;20029;-79
2022/09/24 08:06:48;;;;;;;1.85;1.73;;;;;;;28.74;23.81;98170.28;5067627;28;20024;-79
2022/09/24 08:09:15;;;;;;;1.73;1.30;;;;;;;27.67;25.57;98174.66;5068044;28;20055;-79
2022/09/24 08:11:42;;;;;;;1.38;1.27;;;;;;;29.04;23.60;98179.19;5070079;28;20033;-79
2022/09/24 08:14:09;;;;;;;1.83;1.40;;;;;;;28.82;25.21;98172.84;5065439;28;20052;-79
2022/09/24 08:16:36;;;;;;;2.15;1.55;;;;;;;28.42;24.77;98175.59;5060868;28;20033;-80
2022/09/24 08:19:02;;;;;;;1.35;1.25;;;;;;;28.75;24.22;98182.41;5064651;28;20100;-79
2022/09/24 08:21:28;;;;;;;1.48;1.38;;;;;;;29.60;22.78;98173.25;5066311;28;20032;-79
2022/09/24 08:23:55;;;;;;;1.50;1.40;;;;;;;29.86;22.97;98174.56;5068516;28;20072;-79
2022/09/24 08:26:21;;;;;;;2.88;1.40;;;;;;;30.58;22.23;98168.03;5068086;28;20035;-79
2022/09/24 08:28:50;;;;;;;1.40;1.27;;;;;;;31.09;22.06;98168.84;5055435;28;20032;-79
2022/09/24 08:31:16;;;;;;;2.03;1.10;;;;;;;30.77;21.19;98172.41;5065749;28;20021;-80
2022/09/24 08:33:45;;;;;;;1.77;1.35;;;;;;;30.28;22.63;98166.19;5069204;28;20036;-79
2022/09/24 08:36:11;;;;;;;1.83;1.63;;;;;;;29.50;24.75;98177.34;5068276;28;20064;-81
2022/09/24 08:38:37;;;;;;;1.98;1.25;;;;;;;29.25;22.57;98167.84;5067247;28;20797;-80
2022/09/24 08:41:12;;;;;;;1.30;1.02;;;;;;;29.05;24.39;98172.31;5066716;28;20059;-80
2022/09/24 08:43:53;;;;;;;1.85;1.30;;;;;;;29.82;23.83;98171.09;5065564;28;20111;-80
2022/09/24 08:49:23;;;;;;;1.10;1.05;;;;;;;30.05;22.30;98171.28;5062839;28;20051;-79
2022/09/24 08:52:00;;;;;;;1.20;1.10;;;;;;;30.23;22.81;98166.81;5060618;28;20044;-79
2022/09/24 08:54:29;;;;;;;1.25;1.20;;;;;;;31.02;21.97;98171.22;5066055;28;20143;-80
2022/09/24 08:56:56;;;;;;;1.70;1.10;;;;;;;30.26;22.44;98165.88;5062507;28;20036;-80
2022/09/24 08:59:32;;;;;;;1.35;1.00;;;;;;;29.84;22.00;98172.22;5063158;28;20114;-80
2022/09/24 09:02:28;;;;;;;2.08;1.40;;;;;;;29.13;21.70;98163.06;5062050;28;20028;-80
2022/09/24 09:04:56;;;;;;;2.08;1.50;;;;;;;29.14;24.08;98159.00;5065979;28;20109;-80
2022/09/24 09:07:43;;;;;;;1.13;1.02;;;;;;;28.96;24.63;98164.59;5062531;28;20057;-80
2022/09/24 09:10:16;;;;;;;1.42;1.20;;;;;;;29.26;24.71;98163.78;5061309;28;20041;-79
2022/09/24 09:12:52;;;;;;;1.27;1.17;;;;;;;30.35;23.88;98160.22;5070077;28;20116;-80
2022/09/24 09:15:20;;;;;;;1.40;1.17;;;;;;;29.65;25.04;98152.81;5066301;28;20398;-79
2022/09/24 09:18:41;;;;;;;1.23;1.10;;;;;;;30.92;22.67;98159.16;5066396;28;20039;-81
2022/09/24 09:21:10;;;;;;;1.13;1.00;;;;;;;31.61;21.78;98146.78;4986714;28;20129;-81
2022/09/24 09:23:45;;;;;;;2.78;0.93;;;;;;;31.77;21.56;98149.19;5052824;28;20043;-81
2022/09/24 09:26:12;;;;;;;1.10;1.00;;;;;;;32.14;21.23;98147.63;5053462;28;20451;-82
2022/09/24 09:28:39;;;;;;;1.10;1.00;;;;;;;31.72;20.86;98142.13;5053119;28;20033;-81
2022/09/24 09:31:29;;;;;;;1.55;1.00;;;;;;;31.99;21.56;98141.97;5043324;28;20033;-81
2022/09/24 09:34:14;;;;;;;0.98;0.88;;;;;;;32.43;20.36;98138.34;5065208;28;20038;-81
2022/09/24 09:37:06;;;;;;;1.23;1.13;;;;;;;32.44;20.50;98142.78;5064052;28;20029;-81
2022/09/24 09:39:50;;;;;;;1.88;1.15;;;;;;;32.58;20.34;98136.34;5062020;28;20033;-80
2022/09/24 09:42:35;;;;;;;0.93;0.90;;;;;;;32.36;20.56;98139.53;5065824;28;20024;-80
2022/09/24 09:45:43;;;;;;;1.42;1.05;;;;;;;31.17;20.56;98133.19;5071382;28;20040;-80
2022/09/24 09:48:12;;;;;;;0.98;0.95;;;;;;;31.76;20.96;98131.41;5038546;28;20044;-80
2022/09/24 09:50:48;;;;;;;1.35;1.17;;;;;;;31.95;20.82;98135.63;5071292;28;20052;-80
2022/09/24 09:53:26;;;;;;;1.20;0.93;;;;;;;32.52;20.47;98127.69;5071247;28;20032;-80
2022/09/24 09:55:54;;;;;;;1.10;1.00;;;;;;;32.43;20.99;98124.94;5058110;28;20031;-80
2022/09/24 09:58:26;;;;;;;1.45;1.30;;;;;;;30.96;21.82;98127.78;5070144;28;20036;-80
2022/09/24 10:01:02;;;;;;;2.90;1.58;;;;;;;28.90;24.62;98121.22;5069555;28;20047;-80
2022/09/24 10:03:32;;;;;;;1.67;1.27;;;;;;;29.82;23.35;98114.50;5070174;28;20029;-80
2022/09/24 10:06:01;;;;;;;0.95;0.80;;;;;;;29.67;23.64;98122.00;5061743;28;20029;-81
2022/09/24 10:08:28;;;;;;;1.42;1.30;;;;;;;30.92;21.00;98118.66;5072809;28;20111;-81
2022/09/24 10:10:59;;;;;;;1.02;0.93;;;;;;;31.83;20.79;98119.66;5071790;28;20403;-80
2022/09/24 10:13:26;;;;;;;;;;;;;;;32.18;18.30;98116.22;5069357;28;20036;-80
2022/09/24 10:16:04;;;;;;;1.08;0.98;;;;;;;32.48;21.10;98114.94;5061194;28;20909;-81
2022/09/24 10:19:03;;;;;;;1.40;1.30;;;;;;;32.69;19.90;98114.56;5067505;28;20033;-81
2022/09/24 10:21:34;;;;;;;0.85;0.85;;;;;;;32.80;20.17;98116.78;5004377;28;20037;-80
2022/09/24 10:24:04;;;;;;;0.80;0.80;;;;;;;32.90;19.77;98114.59;5061929;28;20033;-80
2022/09/24 10:26:42;;;;;;;0.70;0.70;;;;;;;32.91;20.49;98108.41;5071392;28;20039;-80
2022/09/24 10:32:15;;;;;;;1.27;1.05;;;;;;;32.96;19.65;98110.56;5061469;28;20051;-82
2022/09/24 10:34:41;;;;;;;1.48;0.80;;;;;;;32.99;19.54;98103.91;5068859;28;20372;-82
2022/09/24 10:37:17;;;;;;;1.35;1.00;;;;;;;33.32;20.74;98106.47;5066047;28;20040;-81
2022/09/24 10:39:44;;;;;;;0.93;0.93;;;;;;;33.07;18.94;98107.91;5065818;28;20115;-81
2022/09/24 10:42:24;;;;;;;1.20;1.10;;;;;;;32.65;19.19;98105.44;5063929;28;20040;-80
2022/09/24 10:44:50;;;;;;;0.80;0.75;;;;;;;32.44;20.17;98100.16;5050595;28;20631;-81
2022/09/24 10:47:42;;;;;;;1.10;0.88;;;;;;;32.52;19.80;98101.31;5065219;28;20089;-78
2022/09/24 10:50:27;;;;;;;0.90;0.90;;;;;;;32.28;20.34;98104.25;5058711;28;20060;-79
2022/09/24 10:53:16;;;;;;;2.35;1.15;;;;;;;32.35;19.45;98101.00;5064805;28;20036;-79
2022/09/24 10:56:08;;;;;;;1.13;0.90;;;;;;;32.33;19.80;98094.25;5067818;28;20059;-79
2022/09/24 10:58:55;;;;;;;1.55;0.93;;;;;;;32.35;20.13;98091.72;5066554;28;20033;-80
2022/09/24 11:01:49;;;;;;;1.30;1.08;;;;;;;32.10;20.46;98095.91;5058581;28;20508;-79
2022/09/24 11:04:34;;;;;;;1.23;0.82;;;;;;;32.74;19.32;98101.69;5064414;28;20028;-78
2022/09/24 11:07:13;;;;;;;3.35;0.82;;;;;;;33.15;20.58;98094.84;5063948;28;20060;-78
2022/09/24 11:09:45;;;;;;;1.20;1.10;;;;;;;31.82;20.81;98098.19;5066268;28;20119;-78
2022/09/24 11:12:22;;;;;;;0.75;0.70;;;;;;;32.06;21.72;98103.84;5065392;28;20033;-77
2022/09/24 11:15:04;;;;;;;0.73;0.73;;;;;;;32.75;20.01;98097.56;5063291;28;20468;-78
2022/09/24 11:17:41;;;;;;;0.70;0.70;;;;;;;32.37;20.65;98092.00;5068332;28;20561;-78
2022/09/24 11:20:30;;;;;;;0.95;0.63;;;;;;;32.24;19.86;98088.66;5067494;28;20072;-78
2022/09/24 11:23:24;;;;;;;0.88;0.70;;;;;;;32.44;20.65;98089.53;5067276;28;20107;-78
2022/09/24 11:25:56;;;;;;;0.63;0.63;;;;;;;32.51;20.62;98088.41;5063319;28;20064;-78
2022/09/24 11:28:44;;;;;;;0.70;0.70;;;;;;;31.95;19.90;98078.06;5062923;28;20037;-79
2022/09/24 11:31:16;;;;;;;4.97;0.90;;;;;;;30.48;21.81;98082.28;5066104;28;20038;-78
2022/09/24 11:33:45;;;;;;;1.15;0.65;;;;;;;29.97;24.79;98076.56;5065603;28;20036;-79
2022/09/24 11:36:11;;;;;;;0.82;0.60;;;;;;;30.24;22.27;98072.91;5065616;28;20032;-80
2022/09/24 11:38:58;;;;;;;2.67;0.82;;;;;;;30.92;19.45;98068.41;5065141;28;20065;-78
2022/09/24 11:41:33;;;;;;;0.82;0.70;;;;;;;31.73;21.53;98064.22;5064722;28;20512;-78
2022/09/24 11:44:10;;;;;;;0.80;0.80;;;;;;;31.53;20.71;98057.63;5066056;28;20098;-78
2022/09/24 11:47:09;;;;;;;0.90;0.90;;;;;;;31.59;17.01;98064.19;5067612;28;20056;-78
2022/09/24 11:49:59;;;;;;;3.22;0.80;;;;;;;32.73;20.25;98054.63;5065709;28;20100;-78
2022/09/24 11:53:01;;;;;;;0.65;0.65;;;;;;;32.95;20.45;98054.19;5062339;28;20039;-78
2022/09/24 11:55:41;;;;;;;0.63;0.60;;;;;;;34.37;18.27;98047.84;5046955;28;20041;-78
2022/09/24 11:58:08;;;;;;;;;;;;;;;34.61;13.97;98044.72;5046359;28;20044;-79
2022/09/24 12:00:39;;;;;;;0.50;0.50;;;;;;;34.49;17.80;98048.72;5066803;28;19946;-79
2022/09/24 12:03:15;;;;;;;0.68;0.68;;;;;;;34.71;18.67;98058.25;5065351;28;20021;-78
2022/09/24 12:05:56;;;;;;;0.63;0.63;;;;;;;34.40;19.30;98055.38;5060865;28;20063;-79